Time;durP1;ratioP1;P1;durP2;ratioP2;P2;SDS_P1;SDS_P2;PMS_P1;PMS_P2;Temp;Humidity;BMP_temperature;BMP_pressure;BME280_temperature;BME280_humidity;BME280_pressure;Samples;Min_cycle;Max_cycle;Signal;HPM_P1;HPM_P2
2023/11/17 00:02:02;;;;;;;104.90;58.30;;;;;;;-128.00;-1.00;-1.00;105369;1253;1004416;-78
2023/11/17 00:04:29;;;;;;;93.40;52.80;;;;;;;-128.00;-1.00;-1.00;105449;1253;1003966;-79
2023/11/17 00:06:56;;;;;;;108.60;60.20;;;;;;;-128.00;-1.00;-1.00;105349;1256;1003927;-79
2023/11/17 00:09:22;;;;;;;153.40;83.00;;;;;;;-128.00;-1.00;-1.00;105429;1252;1004472;-79
2023/11/17 00:11:49;;;;;;;143.30;76.80;;;;;;;-128.00;-1.00;-1.00;105397;1253;1003811;-79
2023/11/17 00:14:16;;;;;;;136.10;76.70;;;;;;;-128.00;-1.00;-1.00;105412;1253;1004006;-79
2023/11/17 00:16:42;;;;;;;155.40;94.10;;;;;;;-128.00;-1.00;-1.00;105386;1253;1004607;-79
2023/11/17 00:19:09;;;;;;;161.20;90.50;;;;;;;-128.00;-1.00;-1.00;105415;1252;1003986;-78
2023/11/17 00:21:36;;;;;;;144.10;80.90;;;;;;;-128.00;-1.00;-1.00;105407;1253;1004149;-79
2023/11/17 00:24:05;;;;;;;153.00;89.00;;;;;;;-128.00;-1.00;-1.00;105402;1253;1004107;-78
2023/11/17 00:26:32;;;;;;;153.30;84.50;;;;;;;-128.00;-1.00;-1.00;105425;1253;1059102;-79
2023/11/17 00:29:00;;;;;;;135.20;74.40;;;;;;;-128.00;-1.00;-1.00;105404;1253;1004513;-78
2023/11/17 00:31:29;;;;;;;134.50;76.70;;;;;;;-128.00;-1.00;-1.00;105436;1252;1003980;-78
2023/11/17 00:33:55;;;;;;;;;;;;;;;-128.00;-1.00;-1.00;105413;1253;1047777;-78
2023/11/17 00:36:22;;;;;;;134.00;73.50;;;;;;;-128.00;-1.00;-1.00;105381;1252;1004575;-79
2023/11/17 00:38:50;;;;;;;135.80;77.60;;;;;;;-128.00;-1.00;-1.00;105392;1253;1005138;-79
2023/11/17 00:41:17;;;;;;;134.10;80.20;;;;;;;-128.00;-1.00;-1.00;105413;1253;1004334;-79
2023/11/17 00:43:44;;;;;;;127.20;74.80;;;;;;;-128.00;-1.00;-1.00;105433;1253;1005449;-79
2023/11/17 00:46:11;;;;;;;139.90;78.30;;;;;;;-128.00;-1.00;-1.00;105387;1253;1003796;-79
2023/11/17 00:48:37;;;;;;;113.60;70.30;;;;;;;-128.00;-1.00;-1.00;105354;1257;1004827;-79
2023/11/17 00:51:04;;;;;;;129.90;74.90;;;;;;;-128.00;-1.00;-1.00;105371;1253;1004180;-79
2023/11/17 00:53:31;;;;;;;127.30;74.60;;;;;;;-128.00;-1.00;-1.00;105387;1252;1004597;-79
2023/11/17 00:56:04;;;;;;;112.40;65.80;;;;;;;-128.00;-1.00;-1.00;105384;1256;1003664;-79
2023/11/17 00:58:31;;;;;;;129.40;75.80;;;;;;;-128.00;-1.00;-1.00;105411;1252;1046533;-78
2023/11/17 01:00:57;;;;;;;146.30;86.40;;;;;;;-128.00;-1.00;-1.00;105446;1253;1005280;-78
2023/11/17 01:03:24;;;;;;;119.70;70.30;;;;;;;-128.00;-1.00;-1.00;105405;1253;1004191;-78
2023/11/17 01:05:55;;;;;;;98.90;57.50;;;;;;;-128.00;-1.00;-1.00;105416;1253;1004696;-78
2023/11/17 01:08:21;;;;;;;100.80;55.80;;;;;;;-128.00;-1.00;-1.00;105356;1253;1045809;-78
2023/11/17 01:10:48;;;;;;;97.60;54.20;;;;;;;-128.00;-1.00;-1.00;105461;1253;1006108;-78
2023/11/17 01:13:14;;;;;;;95.00;54.50;;;;;;;-128.00;-1.00;-1.00;105396;1252;1005009;-78
2023/11/17 01:15:41;;;;;;;81.00;47.60;;;;;;;-128.00;-1.00;-1.00;105436;1252;1003947;-78
2023/11/17 01:18:08;;;;;;;105.90;54.70;;;;;;;-128.00;-1.00;-1.00;105422;1253;1004774;-79
2023/11/17 01:20:35;;;;;;;90.10;48.10;;;;;;;-128.00;-1.00;-1.00;105373;1256;1004557;-79
2023/11/17 01:23:05;;;;;;;71.80;42.80;;;;;;;-128.00;-1.00;-1.00;105381;1253;1004822;-79
2023/11/17 01:25:34;;;;;;;91.40;50.50;;;;;;;-128.00;-1.00;-1.00;105429;1253;1062516;-78
2023/11/17 01:28:01;;;;;;;91.40;52.40;;;;;;;-128.00;-1.00;-1.00;105384;1253;1060017;-78
2023/11/17 01:30:30;;;;;;;121.60;71.00;;;;;;;-128.00;-1.00;-1.00;105403;1253;1004068;-78
2023/11/17 01:32:56;;;;;;;130.00;74.70;;;;;;;-128.00;-1.00;-1.00;105353;1253;1045087;-78
2023/11/17 01:35:23;;;;;;;130.50;77.30;;;;;;;-128.00;-1.00;-1.00;105428;1256;1003609;-78
2023/11/17 01:37:49;;;;;;;129.80;71.80;;;;;;;-128.00;-1.00;-1.00;105397;1256;1003986;-78
2023/11/17 01:40:17;;;;;;;118.10;70.90;;;;;;;-128.00;-1.00;-1.00;105406;1253;1004251;-79
2023/11/17 01:42:44;;;;;;;131.30;71.90;;;;;;;-128.00;-1.00;-1.00;105366;1255;1004508;-79
2023/11/17 01:45:11;;;;;;;111.50;60.00;;;;;;;-128.00;-1.00;-1.00;105402;1253;1003848;-79
2023/11/17 01:47:39;;;;;;;107.00;60.80;;;;;;;-128.00;-1.00;-1.00;105381;1253;1003735;-78
2023/11/17 01:50:09;;;;;;;91.30;55.90;;;;;;;-128.00;-1.00;-1.00;105543;1253;1003180;-78
2023/11/17 01:52:37;;;;;;;92.30;55.20;;;;;;;-128.00;-1.00;-1.00;105442;1252;1059031;-78
2023/11/17 01:55:07;;;;;;;80.20;47.90;;;;;;;-128.00;-1.00;-1.00;105392;1252;1004402;-78
2023/11/17 01:57:35;;;;;;;73.90;46.80;;;;;;;-128.00;-1.00;-1.00;105485;1253;1046883;-79
2023/11/17 02:00:06;;;;;;;64.60;41.00;;;;;;;-128.00;-1.00;-1.00;105522;1252;1004565;-78
2023/11/17 02:02:34;;;;;;;57.80;36.00;;;;;;;-128.00;-1.00;-1.00;105422;1254;1062784;-78
2023/11/17 02:05:01;;;;;;;60.00;36.00;;;;;;;-128.00;-1.00;-1.00;105365;1253;1005224;-79
2023/11/17 02:07:59;;;;;;;56.90;32.70;;;;;;;-128.00;-1.00;-1.00;105413;1253;1005118;-78
2023/11/17 02:11:09;;;;;;;40.20;25.90;;;;;;;-128.00;-1.00;-1.00;105386;1253;1046225;-78
2023/11/17 02:13:38;;;;;;;38.20;22.90;;;;;;;-128.00;-1.00;-1.00;105426;1253;1047762;-79
2023/11/17 02:16:10;;;;;;;;;;;;;;;-128.00;-1.00;-1.00;105429;1253;1062737;-79
2023/11/17 02:18:40;;;;;;;24.80;15.40;;;;;;;-128.00;-1.00;-1.00;105316;1254;1058359;-78
2023/11/17 02:21:07;;;;;;;22.60;14.20;;;;;;;-128.00;-1.00;-1.00;105447;1252;1058924;-79
2023/11/17 02:23:34;;;;;;;23.30;14.00;;;;;;;-128.00;-1.00;-1.00;105352;1252;1004699;-79
2023/11/17 02:26:17;;;;;;;16.20;9.40;;;;;;;-128.00;-1.00;-1.00;105431;1254;1004267;-78
2023/11/17 02:28:58;;;;;;;11.70;7.00;;;;;;;-128.00;-1.00;-1.00;105434;1253;1061825;-79
2023/11/17 02:31:32;;;;;;;6.90;4.10;;;;;;;-128.00;-1.00;-1.00;105372;1257;1058741;-78
2023/11/17 02:34:09;;;;;;;6.40;3.90;;;;;;;-128.00;-1.00;-1.00;105276;1253;1059758;-78
2023/11/17 02:36:38;;;;;;;8.20;4.30;;;;;;;-128.00;-1.00;-1.00;105363;1257;1044752;-78
2023/11/17 02:39:21;;;;;;;9.40;4.30;;;;;;;-128.00;-1.00;-1.00;105417;1253;1047005;-79
2023/11/17 02:41:56;;;;;;;6.70;4.30;;;;;;;-128.00;-1.00;-1.00;105304;1252;1060457;-79
2023/11/17 02:44:28;;;;;;;7.00;4.30;;;;;;;-128.00;-1.00;-1.00;105424;1254;1057979;-78
2023/11/17 02:47:00;;;;;;;6.80;4.00;;;;;;;-128.00;-1.00;-1.00;105236;1254;1059919;-79
2023/11/17 02:49:34;;;;;;;7.40;4.10;;;;;;;-128.00;-1.00;-1.00;105436;1252;1045230;-78
2023/11/17 02:52:03;;;;;;;7.70;3.90;;;;;;;-128.00;-1.00;-1.00;105397;1254;1047527;-79
2023/11/17 02:54:30;;;;;;;;;;;;;;;-128.00;-1.00;-1.00;105343;1254;1062528;-79
2023/11/17 02:56:58;;;;;;;8.10;4.90;;;;;;;-128.00;-1.00;-1.00;105397;1257;1004722;-78
2023/11/17 02:59:25;;;;;;;8.00;4.70;;;;;;;-128.00;-1.00;-1.00;105406;1254;1003468;-78
2023/11/17 03:01:52;;;;;;;8.90;5.40;;;;;;;-128.00;-1.00;-1.00;105410;1254;1004511;-79
2023/11/17 03:04:19;;;;;;;10.00;6.30;;;;;;;-128.00;-1.00;-1.00;105351;1253;1004050;-79
2023/11/17 03:06:46;;;;;;;12.40;6.80;;;;;;;-128.00;-1.00;-1.00;105410;1253;1004326;-79
2023/11/17 03:09:14;;;;;;;9.10;5.90;;;;;;;-128.00;-1.00;-1.00;105407;1253;1004698;-79
2023/11/17 03:11:42;;;;;;;12.10;7.60;;;;;;;-128.00;-1.00;-1.00;105374;1254;1004368;-78
2023/11/17 03:14:09;;;;;;;13.50;7.90;;;;;;;-128.00;-1.00;-1.00;105403;1253;1003905;-79
2023/11/17 03:16:36;;;;;;;13.70;8.50;;;;;;;-128.00;-1.00;-1.00;105413;1253;1004566;-79
2023/11/17 03:19:10;;;;;;;10.50;7.90;;;;;;;-128.00;-1.00;-1.00;105450;1252;1004669;-79
2023/11/17 03:21:40;;;;;;;9.20;7.50;;;;;;;-128.00;-1.00;-1.00;105443;1253;1057357;-79
2023/11/17 03:24:17;;;;;;;14.10;6.50;;;;;;;-128.00;-1.00;-1.00;105379;1254;1060646;-78
2023/11/17 03:26:44;;;;;;;10.50;6.70;;;;;;;-128.00;-1.00;-1.00;105418;1254;1045858;-79
2023/11/17 03:29:13;;;;;;;13.00;8.60;;;;;;;-128.00;-1.00;-1.00;105387;1253;1003983;-79
2023/11/17 03:31:53;;;;;;;15.80;9.90;;;;;;;-128.00;-1.00;-1.00;105409;1254;1062095;-78
2023/11/17 03:34:40;;;;;;;21.10;12.30;;;;;;;-128.00;-1.00;-1.00;105288;1254;1057614;-78
2023/11/17 03:37:07;;;;;;;20.90;13.70;;;;;;;-128.00;-1.00;-1.00;105341;1254;1058983;-79
2023/11/17 03:39:41;;;;;;;19.80;14.60;;;;;;;-128.00;-1.00;-1.00;105389;1252;1004195;-79
2023/11/17 03:42:12;;;;;;;16.10;10.30;;;;;;;-128.00;-1.00;-1.00;105424;1253;1047714;-78
2023/11/17 03:44:39;;;;;;;15.60;11.90;;;;;;;-128.00;-1.00;-1.00;105405;1254;1061511;-78
2023/11/17 03:47:06;;;;;;;11.10;6.90;;;;;;;-128.00;-1.00;-1.00;105404;1255;1004420;-79
2023/11/17 03:49:33;;;;;;;8.10;4.60;;;;;;;-128.00;-1.00;-1.00;105424;1253;1004337;-78
2023/11/17 03:52:00;;;;;;;9.80;7.00;;;;;;;-128.00;-1.00;-1.00;105351;1254;1004054;-78
2023/11/17 03:54:26;;;;;;;10.10;7.10;;;;;;;-128.00;-1.00;-1.00;105421;1253;1005007;-79
2023/11/17 03:56:53;;;;;;;26.40;13.60;;;;;;;-128.00;-1.00;-1.00;105431;1254;1003663;-79
2023/11/17 03:59:21;;;;;;;112.80;44.60;;;;;;;-128.00;-1.00;-1.00;105453;1252;1004102;-79
2023/11/17 04:01:48;;;;;;;42.70;21.90;;;;;;;-128.00;-1.00;-1.00;105360;1254;1004460;-78
2023/11/17 04:04:18;;;;;;;19.70;12.90;;;;;;;-128.00;-1.00;-1.00;105335;1254;1003771;-79
2023/11/17 04:06:49;;;;;;;19.20;12.40;;;;;;;-128.00;-1.00;-1.00;105405;1253;1045836;-78
2023/11/17 04:09:16;;;;;;;22.70;17.00;;;;;;;-128.00;-1.00;-1.00;105412;1254;1061308;-78
2023/11/17 04:11:43;;;;;;;13.30;8.80;;;;;;;-128.00;-1.00;-1.00;105417;1252;1004453;-78
2023/11/17 04:14:09;;;;;;;15.10;9.10;;;;;;;-128.00;-1.00;-1.00;105407;1254;1004264;-79
2023/11/17 04:16:37;;;;;;;10.40;6.00;;;;;;;-128.00;-1.00;-1.00;105419;1253;1004333;-78
2023/11/17 04:19:03;;;;;;;15.00;10.30;;;;;;;-128.00;-1.00;-1.00;105386;1253;1004849;-79
2023/11/17 04:21:30;;;;;;;21.10;13.20;;;;;;;-128.00;-1.00;-1.00;105414;1254;1004182;-79
2023/11/17 04:23:57;;;;;;;12.90;7.90;;;;;;;-128.00;-1.00;-1.00;105386;1253;1003256;-79
2023/11/17 04:26:23;;;;;;;16.70;9.70;;;;;;;-128.00;-1.00;-1.00;105411;1254;1005127;-79
2023/11/17 04:28:50;;;;;;;11.90;7.10;;;;;;;-128.00;-1.00;-1.00;105408;1253;1004729;-79
2023/11/17 04:31:16;;;;;;;11.20;7.30;;;;;;;-128.00;-1.00;-1.00;105414;1254;1004308;-78
2023/11/17 04:33:43;;;;;;;15.20;10.50;;;;;;;-128.00;-1.00;-1.00;105364;1254;1003907;-79
2023/11/17 04:36:10;;;;;;;8.90;5.70;;;;;;;-128.00;-1.00;-1.00;105402;1252;1003911;-79
2023/11/17 04:38:40;;;;;;;7.60;4.70;;;;;;;-128.00;-1.00;-1.00;105361;1253;1004364;-79
2023/11/17 04:41:06;;;;;;;10.70;6.10;;;;;;;-128.00;-1.00;-1.00;105420;1254;1045532;-78
2023/11/17 04:43:33;;;;;;;8.30;4.80;;;;;;;-128.00;-1.00;-1.00;105344;1253;1004719;-79
2023/11/17 04:46:00;;;;;;;10.00;5.00;;;;;;;-128.00;-1.00;-1.00;105499;1253;1004076;-78
2023/11/17 04:48:28;;;;;;;7.90;4.70;;;;;;;-128.00;-1.00;-1.00;105380;1254;1005296;-80
2023/11/17 04:50:55;;;;;;;10.50;5.80;;;;;;;-128.00;-1.00;-1.00;105378;1254;1058432;-80
2023/11/17 04:53:21;;;;;;;17.10;6.00;;;;;;;-128.00;-1.00;-1.00;105276;1252;1004331;-79
2023/11/17 04:55:50;;;;;;;7.80;4.70;;;;;;;-128.00;-1.00;-1.00;105382;1253;1004186;-79
2023/11/17 04:58:17;;;;;;;10.10;5.00;;;;;;;-128.00;-1.00;-1.00;105429;1254;1062368;-79
2023/11/17 05:00:46;;;;;;;24.60;13.40;;;;;;;-128.00;-1.00;-1.00;105359;1254;1004458;-79
2023/11/17 05:03:13;;;;;;;;;;;;;;;-128.00;-1.00;-1.00;105315;1253;1060484;-79
2023/11/17 05:05:39;;;;;;;11.20;5.90;;;;;;;-128.00;-1.00;-1.00;105381;1254;1004880;-79
2023/11/17 05:08:06;;;;;;;8.80;6.20;;;;;;;-128.00;-1.00;-1.00;105367;1252;1005196;-79
2023/11/17 05:10:33;;;;;;;12.50;7.30;;;;;;;-128.00;-1.00;-1.00;105373;1253;1004669;-79
2023/11/17 05:12:59;;;;;;;9.30;6.70;;;;;;;-128.00;-1.00;-1.00;105374;1254;1004841;-79
2023/11/17 05:15:26;;;;;;;15.00;10.60;;;;;;;-128.00;-1.00;-1.00;105317;1253;1004311;-79
2023/11/17 05:17:53;;;;;;;9.40;6.00;;;;;;;-128.00;-1.00;-1.00;105304;1252;1003778;-78
2023/11/17 05:20:20;;;;;;;22.50;14.70;;;;;;;-128.00;-1.00;-1.00;105396;1252;1004013;-79
2023/11/17 05:22:47;;;;;;;13.80;9.20;;;;;;;-128.00;-1.00;-1.00;105375;1253;1004986;-79
2023/11/17 05:25:14;;;;;;;22.80;14.40;;;;;;;-128.00;-1.00;-1.00;105352;1252;1003869;-79
2023/11/17 05:27:42;;;;;;;14.10;8.60;;;;;;;-128.00;-1.00;-1.00;105371;1254;1004009;-78
2023/11/17 05:30:12;;;;;;;12.30;7.20;;;;;;;-128.00;-1.00;-1.00;105368;1253;1003578;-79
2023/11/17 05:32:40;;;;;;;9.70;6.20;;;;;;;-128.00;-1.00;-1.00;105427;1253;1048039;-80
2023/11/17 05:35:07;;;;;;;10.90;5.80;;;;;;;-128.00;-1.00;-1.00;105349;1253;1004106;-78
2023/11/17 05:37:34;;;;;;;9.60;4.60;;;;;;;-128.00;-1.00;-1.00;105371;1254;1005035;-79
2023/11/17 05:40:01;;;;;;;9.00;4.80;;;;;;;-128.00;-1.00;-1.00;105354;1252;1003424;-79
2023/11/17 05:42:28;;;;;;;10.20;5.70;;;;;;;-128.00;-1.00;-1.00;105342;1253;1004428;-78
2023/11/17 05:44:55;;;;;;;9.40;5.20;;;;;;;-128.00;-1.00;-1.00;105431;1254;1003594;-78
2023/11/17 05:47:22;;;;;;;11.30;6.50;;;;;;;-128.00;-1.00;-1.00;105445;1252;1003786;-78
2023/11/17 05:49:48;;;;;;;8.80;6.10;;;;;;;-128.00;-1.00;-1.00;105448;1252;1004779;-79
2023/11/17 05:52:15;;;;;;;10.70;7.80;;;;;;;-128.00;-1.00;-1.00;105368;1253;1004671;-78
2023/11/17 05:54:43;;;;;;;11.20;7.90;;;;;;;-128.00;-1.00;-1.00;105368;1253;1003578;-79
2023/11/17 05:57:14;;;;;;;15.50;9.80;;;;;;;-128.00;-1.00;-1.00;105424;1253;1003905;-79
2023/11/17 05:59:41;;;;;;;15.20;10.50;;;;;;;-128.00;-1.00;-1.00;105570;1252;1061673;-79
2023/11/17 06:02:08;;;;;;;15.70;9.10;;;;;;;-128.00;-1.00;-1.00;105428;1253;1005665;-78
2023/11/17 06:04:35;;;;;;;13.10;9.10;;;;;;;-128.00;-1.00;-1.00;105449;1253;1004198;-79
2023/11/17 06:07:03;;;;;;;12.60;8.00;;;;;;;-128.00;-1.00;-1.00;105343;1253;1004113;-78
2023/11/17 06:09:29;;;;;;;12.50;9.60;;;;;;;-128.00;-1.00;-1.00;105448;1251;1003753;-79
2023/11/17 06:11:56;;;;;;;9.00;6.80;;;;;;;-128.00;-1.00;-1.00;105395;1253;1004672;-78
2023/11/17 06:14:23;;;;;;;10.30;7.10;;;;;;;-128.00;-1.00;-1.00;105393;1252;1004334;-78
2023/11/17 06:16:54;;;;;;;9.90;6.90;;;;;;;-128.00;-1.00;-1.00;105409;1252;1004075;-78
2023/11/17 06:19:22;;;;;;;12.30;9.30;;;;;;;-128.00;-1.00;-1.00;105400;1253;1045941;-77
2023/11/17 06:21:48;;;;;;;13.30;7.40;;;;;;;-128.00;-1.00;-1.00;105435;1252;1004257;-78
2023/11/17 06:24:16;;;;;;;11.10;7.60;;;;;;;-128.00;-1.00;-1.00;105415;1252;1004667;-78
2023/11/17 06:26:45;;;;;;;12.30;8.40;;;;;;;-128.00;-1.00;-1.00;105366;1254;1004241;-79
2023/11/17 06:29:13;;;;;;;13.40;8.80;;;;;;;-128.00;-1.00;-1.00;105538;1251;1059868;-78
2023/11/17 06:31:43;;;;;;;14.70;8.80;;;;;;;-128.00;-1.00;-1.00;105287;1251;1005138;-78
2023/11/17 06:34:10;;;;;;;14.30;9.00;;;;;;;-128.00;-1.00;-1.00;105367;1252;1046621;-78
2023/11/17 06:36:40;;;;;;;16.80;11.20;;;;;;;-128.00;-1.00;-1.00;105438;1253;1003497;-79
2023/11/17 06:39:14;;;;;;;21.10;11.80;;;;;;;-128.00;-1.00;-1.00;105488;1251;1058471;-79
2023/11/17 06:41:42;;;;;;;17.70;11.60;;;;;;;-128.00;-1.00;-1.00;105430;1251;1059934;-78
2023/11/17 06:44:10;;;;;;;13.30;9.40;;;;;;;-128.00;-1.00;-1.00;105497;1251;1003992;-79
2023/11/17 06:46:39;;;;;;;18.20;12.40;;;;;;;-128.00;-1.00;-1.00;105508;1252;1004697;-79
2023/11/17 06:49:08;;;;;;;18.90;12.20;;;;;;;-128.00;-1.00;-1.00;105469;1254;1061607;-78
2023/11/17 06:51:37;;;;;;;17.30;11.20;;;;;;;-128.00;-1.00;-1.00;105252;1254;1060485;-79
2023/11/17 06:54:08;;;;;;;19.10;12.50;;;;;;;-128.00;-1.00;-1.00;105205;1254;1058416;-79
2023/11/17 06:56:35;;;;;;;18.30;13.00;;;;;;;-128.00;-1.00;-1.00;105190;1253;1045714;-78
2023/11/17 06:59:02;;;;;;;18.60;12.30;;;;;;;-128.00;-1.00;-1.00;105281;1252;1004435;-79
2023/11/17 07:01:29;;;;;;;20.20;14.00;;;;;;;-128.00;-1.00;-1.00;105174;1254;1004026;-78
2023/11/17 07:03:58;;;;;;;18.50;12.30;;;;;;;-128.00;-1.00;-1.00;105441;1251;1005113;-79
2023/11/17 07:06:27;;;;;;;19.40;13.80;;;;;;;-128.00;-1.00;-1.00;105348;1251;1059692;-79
2023/11/17 07:08:53;;;;;;;29.80;19.40;;;;;;;-128.00;-1.00;-1.00;105276;1252;1045951;-78
2023/11/17 07:11:20;;;;;;;38.20;23.60;;;;;;;-128.00;-1.00;-1.00;105435;1251;1004548;-78
2023/11/17 07:13:46;;;;;;;27.80;19.10;;;;;;;-128.00;-1.00;-1.00;105432;1251;1004040;-79
2023/11/17 07:16:15;;;;;;;27.20;19.00;;;;;;;-128.00;-1.00;-1.00;105301;1253;1003756;-79
2023/11/17 07:18:42;;;;;;;26.80;17.00;;;;;;;-128.00;-1.00;-1.00;105393;1251;1058049;-78
2023/11/17 07:21:09;;;;;;;31.70;20.00;;;;;;;-128.00;-1.00;-1.00;105370;1253;1004368;-78
2023/11/17 07:23:35;;;;;;;39.70;22.50;;;;;;;-128.00;-1.00;-1.00;105355;1251;1003818;-79
2023/11/17 07:26:03;;;;;;;35.90;21.20;;;;;;;-128.00;-1.00;-1.00;105456;1254;1004821;-79
2023/11/17 07:28:30;;;;;;;28.00;15.90;;;;;;;-128.00;-1.00;-1.00;105453;1251;1004417;-79
2023/11/17 07:30:59;;;;;;;32.70;16.60;;;;;;;-128.00;-1.00;-1.00;105367;1253;1004536;-79
2023/11/17 07:33:25;;;;;;;36.30;22.50;;;;;;;-128.00;-1.00;-1.00;105425;1251;1044812;-78
2023/11/17 07:35:52;;;;;;;31.30;21.30;;;;;;;-128.00;-1.00;-1.00;105337;1253;1004164;-78
2023/11/17 07:38:19;;;;;;;26.60;18.00;;;;;;;-128.00;-1.00;-1.00;105265;1253;1004090;-78
2023/11/17 07:40:47;;;;;;;34.90;23.30;;;;;;;-128.00;-1.00;-1.00;105360;1251;1004797;-78
2023/11/17 07:43:14;;;;;;;23.00;18.40;;;;;;;-128.00;-1.00;-1.00;105378;1251;1003327;-78
2023/11/17 07:45:40;;;;;;;25.00;19.30;;;;;;;-128.00;-1.00;-1.00;105371;1254;1004384;-79
2023/11/17 07:48:07;;;;;;;25.00;18.00;;;;;;;-128.00;-1.00;-1.00;105233;1253;1005208;-78
2023/11/17 07:50:35;;;;;;;42.40;25.00;;;;;;;-128.00;-1.00;-1.00;105413;1252;1004056;-79
2023/11/17 07:53:02;;;;;;;63.00;38.00;;;;;;;-128.00;-1.00;-1.00;105425;1252;1058035;-78
2023/11/17 07:55:28;;;;;;;41.50;25.60;;;;;;;-128.00;-1.00;-1.00;105464;1251;1005053;-78
2023/11/17 07:57:56;;;;;;;46.70;25.00;;;;;;;-128.00;-1.00;-1.00;105378;1252;1003572;-78
2023/11/17 08:00:27;;;;;;;35.10;22.10;;;;;;;-128.00;-1.00;-1.00;105396;1253;1004370;-79
2023/11/17 08:02:54;;;;;;;30.60;22.50;;;;;;;-128.00;-1.00;-1.00;105213;1251;1061484;-79
2023/11/17 08:05:21;;;;;;;40.00;29.00;;;;;;;-128.00;-1.00;-1.00;105240;1251;1004126;-78
2023/11/17 08:07:48;;;;;;;33.40;25.00;;;;;;;-128.00;-1.00;-1.00;105406;1252;1004403;-78
2023/11/17 08:10:15;;;;;;;40.10;32.40;;;;;;;-128.00;-1.00;-1.00;105383;1252;1004919;-78
2023/11/17 08:12:42;;;;;;;27.60;21.20;;;;;;;-128.00;-1.00;-1.00;105301;1252;1004807;-78
2023/11/17 08:15:09;;;;;;;22.00;13.40;;;;;;;-128.00;-1.00;-1.00;105276;1253;1004101;-78
2023/11/17 08:17:37;;;;;;;25.60;16.10;;;;;;;-128.00;-1.00;-1.00;105347;1252;1004465;-78
2023/11/17 08:20:10;;;;;;;19.60;13.60;;;;;;;-128.00;-1.00;-1.00;105324;1253;1059169;-78
2023/11/17 08:22:37;;;;;;;22.60;13.00;;;;;;;-128.00;-1.00;-1.00;105464;1253;1045242;-78
2023/11/17 08:25:04;;;;;;;28.00;15.80;;;;;;;-128.00;-1.00;-1.00;105407;1252;1004252;-78
2023/11/17 08:27:31;;;;;;;30.20;16.90;;;;;;;-128.00;-1.00;-1.00;105388;1253;1004839;-78
2023/11/17 08:29:58;;;;;;;35.40;20.90;;;;;;;-128.00;-1.00;-1.00;105321;1253;1004097;-78
2023/11/17 08:32:25;;;;;;;28.00;17.30;;;;;;;-128.00;-1.00;-1.00;105241;1253;1003595;-78
2023/11/17 08:34:51;;;;;;;30.00;18.00;;;;;;;-128.00;-1.00;-1.00;105299;1252;1004681;-78
2023/11/17 08:37:18;;;;;;;26.30;14.90;;;;;;;-128.00;-1.00;-1.00;105366;1252;1004365;-78
2023/11/17 08:39:45;;;;;;;29.20;14.40;;;;;;;-128.00;-1.00;-1.00;105416;1252;1004474;-78
2023/11/17 08:42:11;;;;;;;28.20;16.20;;;;;;;-128.00;-1.00;-1.00;105346;1251;1005228;-78
2023/11/17 08:44:39;;;;;;;36.70;19.60;;;;;;;-128.00;-1.00;-1.00;105395;1253;1004067;-79
2023/11/17 08:47:07;;;;;;;92.50;43.90;;;;;;;-128.00;-1.00;-1.00;105525;1252;1004960;-78
2023/11/17 08:49:36;;;;;;;180.20;80.70;;;;;;;-128.00;-1.00;-1.00;105397;1252;1005081;-79
2023/11/17 08:52:07;;;;;;;158.60;78.30;;;;;;;-128.00;-1.00;-1.00;105246;1255;1062779;-78
2023/11/17 08:54:34;;;;;;;47.40;24.20;;;;;;;-128.00;-1.00;-1.00;105339;1251;1057833;-78
2023/11/17 08:57:01;;;;;;;25.10;12.50;;;;;;;-128.00;-1.00;-1.00;105350;1252;1003955;-78
2023/11/17 08:59:29;;;;;;;21.10;11.90;;;;;;;-128.00;-1.00;-1.00;105423;1251;1004480;-78
2023/11/17 09:01:55;;;;;;;19.00;10.80;;;;;;;-128.00;-1.00;-1.00;105311;1253;1004960;-78
2023/11/17 09:04:22;;;;;;;22.30;16.10;;;;;;;-128.00;-1.00;-1.00;105329;1253;1004038;-78
2023/11/17 09:06:49;;;;;;;15.60;11.20;;;;;;;-128.00;-1.00;-1.00;105359;1253;1005035;-78
2023/11/17 09:09:17;;;;;;;21.80;13.70;;;;;;;-128.00;-1.00;-1.00;105336;1253;1004738;-78
2023/11/17 09:11:47;;;;;;;15.10;8.70;;;;;;;-128.00;-1.00;-1.00;105355;1252;1004164;-79
2023/11/17 09:14:14;;;;;;;15.70;7.20;;;;;;;-128.00;-1.00;-1.00;105358;1252;1047346;-78
2023/11/17 09:16:40;;;;;;;10.80;6.70;;;;;;;-128.00;-1.00;-1.00;105262;1253;1005047;-78
2023/11/17 09:19:07;;;;;;;9.20;6.10;;;;;;;-128.00;-1.00;-1.00;105399;1253;1004731;-78
2023/11/17 09:21:33;;;;;;;8.80;6.70;;;;;;;-128.00;-1.00;-1.00;105272;1253;1004393;-79
2023/11/17 09:24:01;;;;;;;12.20;8.00;;;;;;;-128.00;-1.00;-1.00;105334;1253;1004245;-78
2023/11/17 09:26:27;;;;;;;13.50;7.20;;;;;;;-128.00;-1.00;-1.00;105360;1252;1004208;-77
2023/11/17 09:28:54;;;;;;;12.70;6.60;;;;;;;-128.00;-1.00;-1.00;105308;1252;1004449;-78
2023/11/17 09:31:20;;;;;;;9.70;6.50;;;;;;;-128.00;-1.00;-1.00;105376;1253;1004168;-78
2023/11/17 09:33:48;;;;;;;10.30;6.70;;;;;;;-128.00;-1.00;-1.00;105265;1253;1005201;-78
2023/11/17 09:36:15;;;;;;;9.10;6.50;;;;;;;-128.00;-1.00;-1.00;105429;1252;1005242;-78
2023/11/17 09:38:41;;;;;;;9.80;6.90;;;;;;;-128.00;-1.00;-1.00;105408;1253;1003617;-78
2023/11/17 09:41:09;;;;;;;14.20;7.50;;;;;;;-128.00;-1.00;-1.00;105370;1253;1004172;-78
2023/11/17 09:43:37;;;;;;;37.90;13.40;;;;;;;-128.00;-1.00;-1.00;105403;1252;1003563;-79
2023/11/17 09:46:05;;;;;;;11.90;5.90;;;;;;;-128.00;-1.00;-1.00;105317;1252;1004098;-79
2023/11/17 09:48:32;;;;;;;6.70;4.60;;;;;;;-128.00;-1.00;-1.00;105454;1252;1004343;-78
2023/11/17 09:51:02;;;;;;;14.20;5.00;;;;;;;-128.00;-1.00;-1.00;105396;1252;1004718;-78
2023/11/17 09:53:29;;;;;;;10.10;4.40;;;;;;;-128.00;-1.00;-1.00;105302;1253;1062088;-78
2023/11/17 09:55:56;;;;;;;11.70;5.40;;;;;;;-128.00;-1.00;-1.00;105431;1252;1004966;-78
2023/11/17 09:58:24;;;;;;;6.60;3.10;;;;;;;-128.00;-1.00;-1.00;105251;1251;1004284;-78
2023/11/17 10:00:51;;;;;;;34.50;8.70;;;;;;;-128.00;-1.00;-1.00;105242;1253;1045520;-78
2023/11/17 10:03:19;;;;;;;53.80;16.20;;;;;;;-128.00;-1.00;-1.00;105263;1253;1004687;-78
2023/11/17 10:05:45;;;;;;;38.60;11.20;;;;;;;-128.00;-1.00;-1.00;105466;1251;1004336;-78
2023/11/17 10:08:19;;;;;;;27.80;9.30;;;;;;;-128.00;-1.00;-1.00;105242;1256;1004005;-78
2023/11/17 10:10:46;;;;;;;12.50;7.20;;;;;;;-128.00;-1.00;-1.00;105245;1253;1060782;-78
2023/11/17 10:13:15;;;;;;;9.40;6.00;;;;;;;-128.00;-1.00;-1.00;105314;1253;1005068;-78
2023/11/17 10:15:44;;;;;;;11.20;6.00;;;;;;;-128.00;-1.00;-1.00;105407;1253;1047736;-78
2023/11/17 10:18:15;;;;;;;11.60;6.10;;;;;;;-128.00;-1.00;-1.00;105391;1252;1060931;-77
2023/11/17 10:20:43;;;;;;;10.20;5.80;;;;;;;-128.00;-1.00;-1.00;105423;1253;1059164;-78
2023/11/17 10:23:10;;;;;;;9.30;5.00;;;;;;;-128.00;-1.00;-1.00;105340;1252;1003363;-78
2023/11/17 10:25:38;;;;;;;10.00;6.40;;;;;;;-128.00;-1.00;-1.00;105387;1253;1004452;-78
2023/11/17 10:28:05;;;;;;;8.40;4.80;;;;;;;-128.00;-1.00;-1.00;105333;1253;1003732;-78
2023/11/17 10:30:41;;;;;;;9.10;5.00;;;;;;;-128.00;-1.00;-1.00;105258;1253;1004115;-78
2023/11/17 10:33:33;;;;;;;10.40;7.10;;;;;;;-128.00;-1.00;-1.00;105280;1253;1057862;-78
2023/11/17 10:36:04;;;;;;;8.80;5.00;;;;;;;-128.00;-1.00;-1.00;105334;1252;1058397;-78
2023/11/17 10:38:35;;;;;;;10.10;5.20;;;;;;;-128.00;-1.00;-1.00;105343;1252;1046795;-78
2023/11/17 10:41:17;;;;;;;9.00;5.60;;;;;;;-128.00;-1.00;-1.00;105335;1252;1046607;-78
2023/11/17 10:43:47;;;;;;;8.30;5.50;;;;;;;-128.00;-1.00;-1.00;105396;1252;1061058;-78
2023/11/17 10:46:13;;;;;;;11.80;6.50;;;;;;;-128.00;-1.00;-1.00;105414;1251;1057885;-78
2023/11/17 10:48:42;;;;;;;13.30;6.30;;;;;;;-128.00;-1.00;-1.00;105360;1252;1004827;-78
2023/11/17 10:51:11;;;;;;;11.00;5.70;;;;;;;-128.00;-1.00;-1.00;105357;1251;1045455;-78
2023/11/17 10:53:37;;;;;;;10.10;5.40;;;;;;;-128.00;-1.00;-1.00;105355;1253;1048503;-78
2023/11/17 10:56:04;;;;;;;10.50;6.00;;;;;;;-128.00;-1.00;-1.00;105367;1253;1003609;-78
2023/11/17 10:58:30;;;;;;;13.80;8.70;;;;;;;-128.00;-1.00;-1.00;105409;1253;1004924;-78
2023/11/17 11:00:57;;;;;;;21.10;13.60;;;;;;;-128.00;-1.00;-1.00;105215;1253;1004463;-78
2023/11/17 11:03:24;;;;;;;9.30;6.60;;;;;;;-128.00;-1.00;-1.00;105298;1253;1004973;-78
2023/11/17 11:05:51;;;;;;;11.90;7.90;;;;;;;-128.00;-1.00;-1.00;105605;1252;1004253;-79
2023/11/17 11:08:18;;;;;;;12.40;7.30;;;;;;;-128.00;-1.00;-1.00;105508;1251;1004418;-78
2023/11/17 11:10:53;;;;;;;17.80;9.10;;;;;;;-128.00;-1.00;-1.00;105497;1254;1004146;-78
2023/11/17 11:13:28;;;;;;;13.10;8.40;;;;;;;-128.00;-1.00;-1.00;105569;1253;1059645;-78